createdAt,value
2023-02-15T00:01:59.530Z,32.47
2023-02-15T00:04:47.905Z,31.87
2023-02-15T00:07:19.086Z,30.73
2023-02-15T00:09:48.446Z,31.57
2023-02-15T00:12:19.060Z,31.33
2023-02-15T00:14:47.266Z,32.90
2023-02-15T00:17:16.091Z,33.53
2023-02-15T00:19:45.059Z,33.80
2023-02-15T00:22:15.691Z,35.17
2023-02-15T00:24:44.745Z,34.30
2023-02-15T00:27:16.232Z,34.23
2023-02-15T00:29:45.768Z,34.27
2023-02-15T00:32:14.095Z,36.77
2023-02-15T00:34:42.427Z,35.53
2023-02-15T00:37:11.079Z,34.07
2023-02-15T00:39:41.948Z,34.20
2023-02-15T00:42:11.088Z,38.83
2023-02-15T00:44:39.901Z,37.13
2023-02-15T00:47:11.698Z,37.40
2023-02-15T00:49:40.094Z,35.80
2023-02-15T00:52:12.283Z,38.27
2023-02-15T00:54:40.733Z,36.87
2023-02-15T00:57:11.124Z,37.17
2023-02-15T00:59:39.335Z,36.13
2023-02-15T01:02:10.093Z,33.70
2023-02-15T01:04:38.928Z,34.40
2023-02-15T01:07:08.218Z,33.67
2023-02-15T01:09:36.928Z,33.90
2023-02-15T01:12:07.850Z,34.97
2023-02-15T01:14:36.927Z,35.67
2023-02-15T01:17:07.000Z,35.40
2023-02-15T01:19:38.938Z,39.53
2023-02-15T01:22:08.460Z,34.33
2023-02-15T01:24:37.918Z,39.23
2023-02-15T01:27:06.861Z,40.53
2023-02-15T01:29:35.726Z,38.37
2023-02-15T01:32:04.769Z,37.70
2023-02-15T01:34:33.147Z,37.27
2023-02-15T01:37:04.248Z,41.07
2023-02-15T01:39:32.385Z,39.97
2023-02-15T01:42:03.543Z,40.03
2023-02-15T01:44:59.412Z,39.53
2023-02-15T01:47:35.680Z,39.67
2023-02-15T01:50:14.283Z,39.77
2023-02-15T01:52:51.083Z,36.57
2023-02-15T01:55:23.671Z,37.70
2023-02-15T01:57:54.312Z,39.60
2023-02-15T02:00:24.167Z,37.87
2023-02-15T02:02:55.967Z,38.37
2023-02-15T02:05:26.952Z,40.70
2023-02-15T02:08:03.019Z,39.27
2023-02-15T02:10:33.015Z,37.80
2023-02-15T02:13:08.169Z,37.73
2023-02-15T02:15:47.100Z,39.17
2023-02-15T02:18:25.942Z,36.37
2023-02-15T02:21:20.151Z,36.07
2023-02-15T02:24:04.934Z,35.87
2023-02-15T02:26:55.387Z,34.67
2023-02-15T02:29:57.897Z,34.33
2023-02-15T02:32:53.082Z,36.07
2023-02-15T02:35:28.687Z,35.30
2023-02-15T02:38:05.976Z,35.97
2023-02-15T02:40:45.110Z,35.93
2023-02-15T02:43:20.403Z,35.13
2023-02-15T02:45:59.516Z,35.43
2023-02-15T02:48:32.954Z,35.70
2023-02-15T02:51:06.367Z,36.67
2023-02-15T02:53:35.841Z,34.43
2023-02-15T02:56:09.208Z,34.70
2023-02-15T02:58:42.039Z,33.90
2023-02-15T03:01:16.132Z,34.03
2023-02-15T03:03:48.669Z,34.50
2023-02-15T03:06:24.744Z,33.90
2023-02-15T03:08:57.413Z,35.10
2023-02-15T03:11:26.135Z,34.80
2023-02-15T03:13:58.358Z,34.97
2023-02-15T03:16:28.158Z,34.93
2023-02-15T03:19:02.973Z,33.43
2023-02-15T03:21:36.934Z,34.77
2023-02-15T03:24:11.746Z,32.90
2023-02-15T03:26:45.122Z,33.07
2023-02-15T03:29:14.594Z,34.37
2023-02-15T03:31:47.225Z,34.67
2023-02-15T03:34:17.481Z,37.07
2023-02-15T03:36:55.402Z,35.07
2023-02-15T03:39:29.459Z,33.33
2023-02-15T03:42:02.105Z,35.00
2023-02-15T03:44:32.985Z,36.57
2023-02-15T03:47:06.840Z,34.70
2023-02-15T03:49:46.165Z,34.67
2023-02-15T03:52:17.171Z,35.30
2023-02-15T03:54:47.996Z,33.20
2023-02-15T03:57:37.437Z,33.20
2023-02-15T04:00:33.301Z,34.17
2023-02-15T04:03:14.675Z,33.90
2023-02-15T04:05:47.204Z,32.77
2023-02-15T04:08:15.959Z,33.97
2023-02-15T04:10:53.157Z,33.27
2023-02-15T04:13:21.984Z,32.57
2023-02-15T04:16:06.862Z,34.23
2023-02-15T04:18:59.994Z,32.43
2023-02-15T04:21:49.737Z,31.83
2023-02-15T04:24:40.008Z,32.87
2023-02-15T04:27:12.260Z,29.60
2023-02-15T04:29:40.385Z,30.47
2023-02-15T04:32:11.736Z,30.70
2023-02-15T04:34:39.992Z,30.30
2023-02-15T04:37:10.199Z,31.90
2023-02-15T04:39:39.510Z,31.60
2023-02-15T04:42:08.134Z,31.40
2023-02-15T04:44:38.556Z,31.10
2023-02-15T04:47:07.151Z,30.73
2023-02-15T04:49:36.029Z,30.50
2023-02-15T04:52:07.502Z,30.50
2023-02-15T04:54:37.992Z,30.33
2023-02-15T04:57:07.314Z,29.37
2023-02-15T04:59:35.499Z,25.67
2023-02-15T05:02:05.147Z,26.03
2023-02-15T05:04:35.153Z,25.93
2023-02-15T05:07:03.536Z,28.87
2023-02-15T05:09:31.718Z,25.60
2023-02-15T05:12:02.732Z,26.43
2023-02-15T05:14:31.053Z,26.73
2023-02-15T05:17:04.313Z,27.83
2023-02-15T05:19:33.025Z,27.97
2023-02-15T05:22:03.686Z,25.87
2023-02-15T05:24:50.002Z,27.43
2023-02-15T05:27:37.875Z,27.60
2023-02-15T05:30:14.270Z,24.27
2023-02-15T05:32:43.174Z,24.60
2023-02-15T05:35:16.264Z,26.47
2023-02-15T05:37:44.599Z,27.47
2023-02-15T05:40:13.648Z,26.73
2023-02-15T05:42:43.558Z,27.87
2023-02-15T05:45:11.812Z,28.80
2023-02-15T05:47:39.927Z,30.23
2023-02-15T05:50:09.716Z,28.37
2023-02-15T05:52:38.076Z,28.90
2023-02-15T05:55:10.249Z,30.13
2023-02-15T05:57:38.477Z,26.63
2023-02-15T06:00:11.954Z,22.17
2023-02-15T06:02:40.610Z,25.23
2023-02-15T06:05:10.232Z,27.60
2023-02-15T06:07:39.689Z,29.50
2023-02-15T06:10:09.288Z,31.07
2023-02-15T06:12:38.200Z,28.27
2023-02-15T06:15:08.488Z,30.13
2023-02-15T06:17:36.861Z,28.93
2023-02-15T06:20:07.430Z,29.67
2023-02-15T06:22:35.730Z,29.27
2023-02-15T06:25:10.941Z,27.60
2023-02-15T06:27:43.753Z,27.27
2023-02-15T06:30:15.461Z,25.23
2023-02-15T06:32:43.763Z,26.80
2023-02-15T06:35:12.578Z,25.87
2023-02-15T06:37:43.477Z,27.87
2023-02-15T06:40:12.197Z,28.10
2023-02-15T06:42:40.505Z,27.43
2023-02-15T06:45:10.408Z,26.10
2023-02-15T06:47:39.914Z,25.43
2023-02-15T06:50:11.685Z,26.40
2023-02-15T06:52:40.038Z,26.80
2023-02-15T06:55:08.734Z,26.83
2023-02-15T06:57:39.324Z,26.93
2023-02-15T07:00:09.196Z,24.20
2023-02-15T07:02:42.373Z,24.67
2023-02-15T07:05:10.901Z,23.73
2023-02-15T07:07:40.206Z,27.90
2023-02-15T07:10:09.194Z,29.00
2023-02-15T07:12:42.316Z,26.47
2023-02-15T07:15:10.971Z,24.87
2023-02-15T07:17:40.245Z,22.77
2023-02-15T07:20:14.306Z,24.77
2023-02-15T07:22:43.899Z,25.70
2023-02-15T07:25:16.338Z,24.27
2023-02-15T07:27:45.877Z,24.47
2023-02-15T07:30:16.578Z,24.00
2023-02-15T07:33:05.439Z,23.43
2023-02-15T07:35:35.937Z,23.73
2023-02-15T07:38:06.044Z,25.80
2023-02-15T07:40:35.302Z,24.93
2023-02-15T07:43:03.452Z,26.00
2023-02-15T07:45:32.241Z,24.67
2023-02-15T07:48:03.078Z,24.73
2023-02-15T07:50:36.758Z,22.33
2023-02-15T07:53:05.233Z,21.03
2023-02-15T07:55:34.256Z,21.27
2023-02-15T07:58:02.518Z,21.23
2023-02-15T08:00:31.603Z,22.90
2023-02-15T08:03:18.132Z,24.30
2023-02-15T08:05:48.235Z,24.60
2023-02-15T08:08:30.788Z,23.50
2023-02-15T08:11:21.847Z,25.47
2023-02-15T08:13:59.981Z,23.87
2023-02-15T08:16:32.286Z,22.87
2023-02-15T08:19:05.482Z,22.77
2023-02-15T08:21:36.814Z,23.90
2023-02-15T08:24:06.693Z,24.77
2023-02-15T08:26:36.225Z,20.47
2023-02-15T08:29:06.092Z,22.07
2023-02-15T08:31:38.752Z,23.00
2023-02-15T08:34:08.099Z,23.33
2023-02-15T08:36:41.491Z,23.53
2023-02-15T08:39:10.085Z,21.77
2023-02-15T08:41:40.352Z,23.90
2023-02-15T08:44:11.215Z,20.57
2023-02-15T08:46:42.607Z,22.00
2023-02-15T08:49:15.879Z,19.77
2023-02-15T08:51:49.644Z,19.33
2023-02-15T08:54:19.780Z,20.27
2023-02-15T08:56:48.298Z,21.50
2023-02-15T08:59:18.903Z,21.00
2023-02-15T09:01:48.002Z,22.97
2023-02-15T09:04:16.849Z,22.23
2023-02-15T09:06:49.510Z,20.57
2023-02-15T09:09:18.675Z,23.20
2023-02-15T09:11:49.331Z,25.03
2023-02-15T09:14:21.093Z,31.93
2023-02-15T09:16:52.710Z,25.00
2023-02-15T09:19:22.342Z,23.47
2023-02-15T09:21:53.831Z,23.53
2023-02-15T09:24:22.095Z,24.77
2023-02-15T09:26:51.272Z,24.80
2023-02-15T09:29:21.768Z,24.67
2023-02-15T09:31:51.789Z,25.17
2023-02-15T09:34:22.177Z,25.07
2023-02-15T09:36:55.284Z,25.33
2023-02-15T09:39:28.644Z,25.63
2023-02-15T09:42:48.330Z,26.07
2023-02-15T09:45:33.943Z,28.93
2023-02-15T09:48:34.096Z,26.00
2023-02-15T09:51:25.207Z,26.10
2023-02-15T09:54:14.991Z,25.33
2023-02-15T09:56:51.431Z,27.73
2023-02-15T09:59:30.134Z,24.90
2023-02-15T10:02:18.961Z,24.07
2023-02-15T10:05:08.375Z,21.97
2023-02-15T10:08:05.657Z,25.47
2023-02-15T10:10:42.395Z,21.10
2023-02-15T10:13:28.763Z,20.60
2023-02-15T10:16:10.627Z,19.87
2023-02-15T10:18:50.755Z,19.67
2023-02-15T10:21:26.993Z,20.03
2023-02-15T10:24:23.047Z,20.43
2023-02-15T10:26:52.692Z,18.60
2023-02-15T10:29:32.125Z,18.47
2023-02-15T10:32:10.586Z,18.70
2023-02-15T10:34:41.224Z,18.00
2023-02-15T10:37:46.728Z,18.60
2023-02-15T10:40:26.584Z,19.00
2023-02-15T10:43:22.839Z,18.53
2023-02-15T10:45:58.914Z,19.43
2023-02-15T10:48:56.737Z,20.20
2023-02-15T10:51:38.962Z,18.60
2023-02-15T10:54:16.175Z,18.37
2023-02-15T10:56:54.601Z,18.17
2023-02-15T10:59:53.907Z,18.20
2023-02-15T11:02:30.166Z,17.67
2023-02-15T11:05:18.824Z,18.67
2023-02-15T11:07:51.132Z,19.10
2023-02-15T11:10:30.688Z,19.20
2023-02-15T11:13:00.299Z,19.53
2023-02-15T11:15:35.706Z,20.27
2023-02-15T11:18:13.618Z,20.53
2023-02-15T11:20:55.389Z,22.83
2023-02-15T11:23:26.385Z,22.57
2023-02-15T11:26:03.008Z,21.00
2023-02-15T11:28:37.191Z,21.97
2023-02-15T11:31:17.973Z,23.27
2023-02-15T11:33:52.450Z,20.70
2023-02-15T11:36:25.526Z,21.33
2023-02-15T11:39:01.481Z,20.97
2023-02-15T11:41:34.479Z,20.97
2023-02-15T11:44:08.522Z,19.73
2023-02-15T11:46:40.527Z,20.60
2023-02-15T11:49:22.560Z,22.00
2023-02-15T11:51:52.694Z,20.73
2023-02-15T11:54:23.994Z,18.77
2023-02-15T11:56:54.387Z,18.70
2023-02-15T11:59:31.507Z,19.40
2023-02-15T12:02:02.716Z,18.37
2023-02-15T12:04:35.512Z,20.00
2023-02-15T12:07:13.455Z,19.00
2023-02-15T12:09:50.315Z,20.83
2023-02-15T12:12:29.198Z,20.03
2023-02-15T12:15:00.323Z,21.83
2023-02-15T12:17:31.696Z,20.13
2023-02-15T12:20:05.624Z,18.97
2023-02-15T12:22:37.289Z,19.00
2023-02-15T12:25:31.522Z,20.13
2023-02-15T12:28:00.191Z,20.17
2023-02-15T12:30:36.217Z,20.70
2023-02-15T12:33:17.819Z,19.90
2023-02-15T12:35:50.326Z,20.60
2023-02-15T12:38:26.894Z,20.37
2023-02-15T12:41:04.527Z,21.63
2023-02-15T12:43:35.329Z,21.30
2023-02-15T12:46:23.383Z,21.63
2023-02-15T12:49:09.284Z,22.30
2023-02-15T12:51:46.482Z,22.63
2023-02-15T12:54:32.927Z,21.57
2023-02-15T12:57:14.422Z,22.10
2023-02-15T12:59:50.862Z,22.93
2023-02-15T13:02:29.333Z,24.97
2023-02-15T13:05:06.406Z,23.20
2023-02-15T13:07:35.003Z,24.20
2023-02-15T13:10:04.353Z,24.70
2023-02-15T13:12:35.224Z,24.00
2023-02-15T13:15:05.948Z,24.10
2023-02-15T13:17:35.833Z,26.37
2023-02-15T13:20:10.774Z,24.97
2023-02-15T13:22:45.010Z,23.87
2023-02-15T13:25:19.718Z,25.33
2023-02-15T13:27:53.382Z,24.27
2023-02-15T13:30:32.260Z,25.83
2023-02-15T13:33:06.395Z,24.23
2023-02-15T13:35:44.108Z,25.70
2023-02-15T13:38:24.201Z,25.93
2023-02-15T13:41:02.060Z,24.60
2023-02-15T13:43:39.621Z,25.17
2023-02-15T13:46:28.465Z,27.13
2023-02-15T13:49:11.104Z,26.67
2023-02-15T13:51:46.447Z,27.00
2023-02-15T13:54:34.815Z,27.93
2023-02-15T13:57:22.589Z,27.47
2023-02-15T14:00:05.273Z,27.20
2023-02-15T14:03:07.893Z,27.70
2023-02-15T14:06:06.397Z,27.43
2023-02-15T14:08:48.819Z,28.07
2023-02-15T14:11:32.256Z,28.90
2023-02-15T14:14:41.084Z,27.97
2023-02-15T14:17:24.198Z,27.77
2023-02-15T14:19:57.204Z,26.33
2023-02-15T14:22:33.827Z,26.03
2023-02-15T14:25:30.007Z,26.43
2023-02-15T14:28:05.687Z,25.93
2023-02-15T14:30:37.810Z,26.37
2023-02-15T14:33:09.999Z,26.57
2023-02-15T14:35:39.352Z,26.53
2023-02-15T14:38:16.451Z,26.43
2023-02-15T14:41:03.948Z,25.20
2023-02-15T14:43:43.264Z,23.80
2023-02-15T14:46:19.686Z,25.37
2023-02-15T14:48:50.355Z,25.27
2023-02-15T14:51:57.901Z,25.13
2023-02-15T14:55:01.223Z,25.17
2023-02-15T14:57:37.089Z,24.23
2023-02-15T15:00:41.562Z,25.73
2023-02-15T15:03:21.150Z,24.97
2023-02-15T15:05:53.699Z,25.13
2023-02-15T15:08:31.049Z,27.43
2023-02-15T15:11:44.215Z,26.57
2023-02-15T15:14:44.424Z,26.47
2023-02-15T15:17:14.602Z,25.50
2023-02-15T15:20:14.535Z,28.93
2023-02-15T15:22:44.260Z,28.57
2023-02-15T15:25:36.639Z,28.53
2023-02-15T15:28:09.583Z,29.50
2023-02-15T15:31:04.829Z,29.33
2023-02-15T15:34:04.563Z,29.37
2023-02-15T15:37:04.758Z,29.70
2023-02-15T15:40:22.605Z,30.70
2023-02-15T15:42:55.509Z,29.17
2023-02-15T15:46:08.714Z,28.90
2023-02-15T15:48:39.194Z,28.50
2023-02-15T15:51:16.724Z,30.17
2023-02-15T15:53:49.497Z,30.37
2023-02-15T15:56:24.651Z,29.07
2023-02-15T15:58:56.217Z,29.77
2023-02-15T16:01:32.789Z,31.80
2023-02-15T16:04:01.983Z,28.73
2023-02-15T16:06:35.861Z,29.20
2023-02-15T16:09:20.222Z,27.90
2023-02-15T16:11:50.424Z,27.37
2023-02-15T16:14:25.392Z,27.70
2023-02-15T16:16:58.407Z,27.00
2023-02-15T16:19:31.572Z,26.40
2023-02-15T16:22:04.627Z,30.07
2023-02-15T16:25:09.993Z,24.97
2023-02-15T16:27:41.779Z,24.60
2023-02-15T16:30:21.993Z,25.97
2023-02-15T16:33:06.481Z,25.43
2023-02-15T16:35:35.630Z,24.60
2023-02-15T16:38:04.883Z,23.27
2023-02-15T16:40:45.401Z,22.77
2023-02-15T16:43:19.370Z,23.73
2023-02-15T16:45:51.303Z,24.13
2023-02-15T16:48:27.535Z,21.53
2023-02-15T16:50:59.905Z,22.70
2023-02-15T16:53:31.233Z,22.13
2023-02-15T16:56:07.067Z,21.33
2023-02-15T16:58:43.651Z,23.07
2023-02-15T17:01:15.061Z,22.63
2023-02-15T17:03:45.155Z,23.20
2023-02-15T17:06:24.407Z,22.90
2023-02-15T17:08:53.241Z,23.77
2023-02-15T17:11:23.285Z,24.90
2023-02-15T17:14:22.262Z,25.20
2023-02-15T17:16:57.403Z,24.33
2023-02-15T17:19:29.325Z,30.27
2023-02-15T17:22:05.132Z,26.73
2023-02-15T17:24:43.280Z,26.40
2023-02-15T17:27:18.552Z,25.87
2023-02-15T17:29:53.200Z,24.50
2023-02-15T17:32:24.431Z,24.30
2023-02-15T17:35:19.415Z,24.33
2023-02-15T17:37:55.502Z,25.10
2023-02-15T17:40:26.532Z,25.53
2023-02-15T17:42:55.480Z,25.43
2023-02-15T17:45:27.202Z,26.63
2023-02-15T17:47:55.562Z,27.50
2023-02-15T17:50:27.497Z,26.10
2023-02-15T17:52:57.398Z,27.17
2023-02-15T17:55:43.155Z,28.07
2023-02-15T17:58:13.340Z,26.97
2023-02-15T18:01:02.393Z,26.70
2023-02-15T18:03:59.360Z,25.70
2023-02-15T18:06:49.347Z,26.70
2023-02-15T18:09:37.876Z,26.37
2023-02-15T18:12:23.602Z,26.63
2023-02-15T18:14:54.279Z,26.43
2023-02-15T18:17:31.324Z,26.77
2023-02-15T18:20:01.481Z,26.97
2023-02-15T18:22:31.246Z,26.47
2023-02-15T18:24:59.792Z,25.87
2023-02-15T18:27:30.308Z,27.50
2023-02-15T18:29:58.543Z,29.10
2023-02-15T18:32:36.699Z,26.00
2023-02-15T18:35:07.300Z,26.60
2023-02-15T18:37:37.288Z,26.90
2023-02-15T18:40:06.180Z,27.53
2023-02-15T18:42:36.160Z,27.00
2023-02-15T18:45:16.408Z,25.53
2023-02-15T18:47:44.789Z,25.93
2023-02-15T18:50:15.615Z,26.53
2023-02-15T18:52:47.466Z,27.73
2023-02-15T18:55:22.548Z,27.90
2023-02-15T18:57:53.639Z,27.90
2023-02-15T19:00:25.257Z,30.27
2023-02-15T19:02:57.341Z,29.40
2023-02-15T19:05:28.121Z,29.93
2023-02-15T19:08:00.188Z,30.00
2023-02-15T19:10:30.684Z,30.90
2023-02-15T19:12:59.065Z,30.67
2023-02-15T19:15:30.496Z,30.90
2023-02-15T19:17:59.148Z,28.73
2023-02-15T19:20:29.783Z,31.33
2023-02-15T19:23:03.259Z,29.53
2023-02-15T19:25:33.410Z,29.50
2023-02-15T19:28:10.412Z,30.23
2023-02-15T19:30:39.505Z,29.57
2023-02-15T19:33:07.859Z,28.83
2023-02-15T19:35:37.224Z,30.97
2023-02-15T19:38:13.669Z,31.03
2023-02-15T19:40:41.933Z,30.03
2023-02-15T19:43:18.352Z,29.93
2023-02-15T19:45:47.042Z,30.10
2023-02-15T19:48:15.875Z,29.97
2023-02-15T19:50:47.423Z,31.07
2023-02-15T19:53:23.600Z,31.27
2023-02-15T19:55:52.948Z,31.57
2023-02-15T19:58:21.239Z,31.33
2023-02-15T20:00:54.465Z,30.97
2023-02-15T20:03:22.689Z,32.30
2023-02-15T20:05:51.908Z,31.70
2023-02-15T20:08:23.812Z,31.17
2023-02-15T20:10:52.184Z,31.83
2023-02-15T20:13:24.126Z,31.93
2023-02-15T20:15:52.950Z,31.40
2023-02-15T20:18:22.679Z,32.60
2023-02-15T20:20:53.244Z,33.67
2023-02-15T20:23:30.450Z,31.37
2023-02-15T20:26:01.303Z,32.50
2023-02-15T20:28:31.597Z,31.60
2023-02-15T20:31:03.921Z,32.33
2023-02-15T20:33:32.260Z,31.70
2023-02-15T20:36:01.282Z,31.63
2023-02-15T20:38:33.327Z,32.60
2023-02-15T20:41:23.087Z,32.07
2023-02-15T20:43:51.263Z,32.07
2023-02-15T20:46:22.609Z,33.13
2023-02-15T20:48:50.806Z,32.17
2023-02-15T20:51:21.125Z,30.60
2023-02-15T20:53:50.755Z,31.50
2023-02-15T20:56:21.609Z,30.37
2023-02-15T20:58:53.445Z,35.77
2023-02-15T21:01:22.560Z,38.60
2023-02-15T21:03:51.444Z,33.93
2023-02-15T21:06:20.018Z,33.40
2023-02-15T21:08:48.358Z,31.77
2023-02-15T21:11:21.125Z,32.43
2023-02-15T21:13:51.340Z,31.70
2023-02-15T21:16:19.857Z,30.53
2023-02-15T21:18:48.057Z,29.73
2023-02-15T21:21:26.263Z,30.43
2023-02-15T21:23:54.923Z,30.50
2023-02-15T21:26:24.765Z,31.40
2023-02-15T21:28:54.082Z,30.23
2023-02-15T21:31:25.237Z,29.63
2023-02-15T21:33:53.488Z,29.73
2023-02-15T21:36:25.577Z,30.03
2023-02-15T21:38:55.341Z,29.23
2023-02-15T21:41:42.987Z,28.63
2023-02-15T21:44:35.297Z,29.97
2023-02-15T21:47:24.199Z,30.23
2023-02-15T21:49:53.870Z,31.67
2023-02-15T21:52:24.057Z,30.40
2023-02-15T21:54:52.555Z,30.67
2023-02-15T21:57:22.573Z,31.20
2023-02-15T21:59:51.552Z,30.97
2023-02-15T22:02:31.637Z,30.17
2023-02-15T22:05:00.516Z,29.70
2023-02-15T22:07:29.365Z,30.40
2023-02-15T22:09:59.565Z,30.20
2023-02-15T22:12:29.518Z,29.97
2023-02-15T22:14:57.718Z,29.40
2023-02-15T22:17:29.322Z,29.57
2023-02-15T22:19:59.543Z,31.60
2023-02-15T22:22:30.146Z,30.33
2023-02-15T22:24:59.373Z,30.33
2023-02-15T22:27:34.269Z,29.00
2023-02-15T22:30:04.299Z,28.93
2023-02-15T22:32:34.045Z,29.87
2023-02-15T22:35:02.567Z,32.00
2023-02-15T22:37:31.505Z,30.67
2023-02-15T22:39:59.762Z,29.90
2023-02-15T22:42:29.761Z,31.63
2023-02-15T22:45:03.102Z,32.63
2023-02-15T22:47:32.400Z,31.80
2023-02-15T22:50:03.003Z,31.17
2023-02-15T22:52:31.501Z,32.03
2023-02-15T22:55:00.561Z,32.97
2023-02-15T22:57:32.515Z,33.67
2023-02-15T23:00:01.400Z,33.87
2023-02-15T23:02:29.854Z,33.37
2023-02-15T23:04:58.422Z,34.77
2023-02-15T23:07:27.528Z,32.97
2023-02-15T23:09:57.950Z,34.40
2023-02-15T23:12:53.760Z,35.17
2023-02-15T23:15:22.081Z,36.70
2023-02-15T23:17:50.214Z,36.30
2023-02-15T23:20:23.628Z,36.57
2023-02-15T23:22:52.245Z,36.33
2023-02-15T23:25:28.080Z,37.27
2023-02-15T23:27:59.384Z,38.17
2023-02-15T23:30:32.997Z,38.33
2023-02-15T23:33:01.493Z,40.23
2023-02-15T23:35:30.567Z,40.57
2023-02-15T23:37:59.396Z,38.63
2023-02-15T23:40:46.108Z,41.20
2023-02-15T23:43:23.389Z,40.47
2023-02-15T23:45:55.429Z,40.80
2023-02-15T23:48:32.371Z,41.33
2023-02-15T23:51:03.903Z,39.93
2023-02-15T23:53:32.974Z,42.77
2023-02-15T23:56:02.557Z,41.93
2023-02-15T23:58:39.378Z,42.53
